createdAt,value
2023-02-11T00:01:13.918Z,7.5
2023-02-11T00:03:18.875Z,7.4
2023-02-11T00:05:20.546Z,7.3
2023-02-11T00:07:22.263Z,7.4
2023-02-11T00:09:23.960Z,7.5
2023-02-11T00:11:25.637Z,7.4
2023-02-11T00:13:27.354Z,7.4
2023-02-11T00:15:29.043Z,7.4
2023-02-11T00:17:33.979Z,7.3
2023-02-11T00:19:35.668Z,7.4
2023-02-11T00:21:37.394Z,7.4
2023-02-11T00:23:39.050Z,7.4
2023-02-11T00:31:49.224Z,7.4
2023-02-11T00:41:57.533Z,7.4
2023-02-11T00:50:09.094Z,7.4
2023-02-11T00:51:11.526Z,7.4
2023-02-11T00:53:13.227Z,7.4
2023-02-11T00:55:14.903Z,7.4
2023-02-11T00:57:16.593Z,7.3
2023-02-11T00:59:21.537Z,7.3
2023-02-11T01:01:23.291Z,7.4
2023-02-11T01:03:24.978Z,7.5
2023-02-11T01:05:26.711Z,7.4
2023-02-11T01:07:28.341Z,7.4
2023-02-11T01:09:30.044Z,7.4
2023-02-11T01:11:31.759Z,7.4
2023-02-11T01:13:36.677Z,7.5
2023-02-11T01:15:38.438Z,7.4
2023-02-11T01:17:40.063Z,7.3
2023-02-11T01:19:41.769Z,7.3
2023-02-11T01:21:43.463Z,7.3
2023-02-11T01:23:45.143Z,7.4
2023-02-11T01:25:46.867Z,7.3
2023-02-11T01:27:51.802Z,7.4
2023-02-11T01:29:53.475Z,7.4
2023-02-11T01:31:55.211Z,7.5
2023-02-11T01:33:56.863Z,7.3
2023-02-11T01:35:58.561Z,7.3
2023-02-11T01:38:00.259Z,7.3
2023-02-11T01:40:01.987Z,7.4
2023-02-11T01:44:08.574Z,7.4
2023-02-11T01:46:10.305Z,7.3
2023-02-11T01:47:12.724Z,7.4
2023-02-11T01:49:14.494Z,7.3
2023-02-11T01:51:16.130Z,7.3
2023-02-11T01:53:17.818Z,7.3
2023-02-11T01:55:22.767Z,7.3
2023-02-11T01:57:24.477Z,7.4
2023-02-11T01:59:26.224Z,7.3
2023-02-11T02:01:27.862Z,7.4
2023-02-11T02:03:29.580Z,7.4
2023-02-11T02:05:31.235Z,7.4
2023-02-11T02:07:32.900Z,7.4
2023-02-11T02:09:37.937Z,7.3
2023-02-11T02:11:39.513Z,7.4
2023-02-11T02:13:41.224Z,7.2
2023-02-11T02:15:42.982Z,7.3
2023-02-11T02:17:44.601Z,7.2
2023-02-11T02:19:46.298Z,7.3
2023-02-11T02:21:47.995Z,7.2
2023-02-11T02:23:52.904Z,7.3
2023-02-11T02:25:54.614Z,7.3
2023-02-11T02:29:58.010Z,7.1
2023-02-11T02:31:59.692Z,7.2
2023-02-11T02:34:01.402Z,7.2
2023-02-11T02:38:08.045Z,7.2
2023-02-11T02:40:09.754Z,7.2
2023-02-11T02:42:11.389Z,7.1
2023-02-11T02:43:13.859Z,7.2
2023-02-11T02:45:15.698Z,7.1
2023-02-11T02:47:17.222Z,7.2
2023-02-11T02:49:18.916Z,7.1
2023-02-11T02:51:23.838Z,7.1
2023-02-11T02:53:25.512Z,7.2
2023-02-11T02:55:27.216Z,7.2
2023-02-11T02:57:28.920Z,7.1
2023-02-11T02:59:30.604Z,7.1
2023-02-11T03:01:32.303Z,7.1
2023-02-11T03:03:34.016Z,7.2
2023-02-11T03:05:39.038Z,7.1
2023-02-11T03:07:40.592Z,7.2
2023-02-11T03:09:42.324Z,7.1
2023-02-11T03:11:43.994Z,7.1
2023-02-11T03:13:45.700Z,7.1
2023-02-11T03:15:47.489Z,7.2
2023-02-11T03:17:49.107Z,7.2
2023-02-11T03:19:53.997Z,7.1
2023-02-11T03:21:55.681Z,7.1
2023-02-11T03:23:57.380Z,7.2
2023-02-11T03:25:59.085Z,7.2
2023-02-11T03:28:00.904Z,7.2
2023-02-11T03:30:02.481Z,7.3
2023-02-11T03:32:04.254Z,7.2
2023-02-11T03:34:09.092Z,7.2
2023-02-11T03:36:10.778Z,7.3
2023-02-11T03:40:41.065Z,7.2
2023-02-11T03:42:42.751Z,7.2
2023-02-11T03:44:44.446Z,7.3
2023-02-11T03:46:49.399Z,7.2
2023-02-11T03:48:51.072Z,7.2
2023-02-11T03:50:52.773Z,7.2
2023-02-11T04:03:06.204Z,7.2
2023-02-11T04:07:09.568Z,7.3
2023-02-11T04:09:11.266Z,7.1
2023-02-11T04:11:12.951Z,7.2
2023-02-11T04:13:14.647Z,7.3
2023-02-11T04:15:19.567Z,7.2
2023-02-11T04:17:21.268Z,7.3
2023-02-11T04:19:22.959Z,7.2
2023-02-11T04:21:24.670Z,7.3
2023-02-11T04:23:26.338Z,7.2
2023-02-11T04:29:34.649Z,7.2
2023-02-11T04:31:36.368Z,7.3
2023-02-11T04:33:38.030Z,7.3
2023-02-11T04:34:40.514Z,7.2
2023-02-11T04:36:42.193Z,7.3
2023-02-11T04:38:43.924Z,7.3
2023-02-11T04:40:45.593Z,7.2
2023-02-11T04:42:50.585Z,7.2
2023-02-11T04:44:52.221Z,7.3
2023-02-11T04:46:53.907Z,7.3
2023-02-11T04:48:55.606Z,7.3
2023-02-11T04:50:57.317Z,7.3
2023-02-11T04:52:59.170Z,7.4
2023-02-11T04:55:00.668Z,7.3
2023-02-11T04:57:05.603Z,7.3
2023-02-11T04:59:07.321Z,7.3
2023-02-11T05:01:09.064Z,7.3
2023-02-11T05:03:10.677Z,7.4
2023-02-11T05:05:12.374Z,7.4
2023-02-11T05:07:14.071Z,7.3
2023-02-11T05:09:15.762Z,7.4
2023-02-11T05:11:20.693Z,7.4
2023-02-11T05:13:22.384Z,7.3
2023-02-11T05:17:25.785Z,7.3
2023-02-11T05:21:29.217Z,7.3
2023-02-11T05:23:30.869Z,7.3
2023-02-11T05:25:35.828Z,7.3
2023-02-11T05:27:37.543Z,7.3
2023-02-11T05:29:39.261Z,7.3
2023-02-11T05:30:41.725Z,7.3
2023-02-11T05:32:43.378Z,7.3
2023-02-11T05:34:45.081Z,7.4
2023-02-11T05:36:46.785Z,7.4
2023-02-11T05:38:51.693Z,7.4
2023-02-11T05:40:53.396Z,7.3
2023-02-11T05:42:55.106Z,7.3
2023-02-11T05:49:00.197Z,7.4
2023-02-11T05:51:01.901Z,7.4
2023-02-11T05:53:06.833Z,7.3
2023-02-11T05:55:08.505Z,7.4
2023-02-11T05:57:10.216Z,7.4
2023-02-11T05:59:11.917Z,7.3
2023-02-11T06:01:13.599Z,7.3
2023-02-11T06:03:15.370Z,7.5
2023-02-11T06:05:17.017Z,7.4
2023-02-11T06:07:21.961Z,7.3
2023-02-11T06:09:23.646Z,7.4
2023-02-11T06:11:25.339Z,7.3
2023-02-11T06:13:27.028Z,7.3
2023-02-11T06:15:28.729Z,7.4
2023-02-11T06:17:30.412Z,7.4
2023-02-11T06:19:32.104Z,7.3
2023-02-11T06:21:43.949Z,7.4
2023-02-11T06:23:38.716Z,7.3
2023-02-11T06:25:40.427Z,7.3
2023-02-11T06:26:42.886Z,7.3
2023-02-11T06:28:44.646Z,7.4
2023-02-11T06:30:46.323Z,7.3
2023-02-11T06:34:52.910Z,7.4
2023-02-11T06:36:54.591Z,7.5
2023-02-11T06:40:59.536Z,7.4
2023-02-11T06:43:01.191Z,7.5
2023-02-11T06:47:04.623Z,7.4
2023-02-11T06:49:09.525Z,7.4
2023-02-11T06:51:11.201Z,7.4
2023-02-11T06:53:12.916Z,7.4
2023-02-11T07:01:19.829Z,7.4
2023-02-11T07:03:24.598Z,7.5
2023-02-11T07:05:26.287Z,7.5
2023-02-11T07:07:27.980Z,7.4
2023-02-11T07:09:29.662Z,7.4
2023-02-11T07:11:31.363Z,7.5
2023-02-11T07:13:33.083Z,7.4
2023-02-11T07:15:34.757Z,7.4
2023-02-11T07:17:39.754Z,7.5
2023-02-11T07:19:41.427Z,7.5
2023-02-11T07:21:43.120Z,7.5
2023-02-11T07:24:11.758Z,7.4
2023-02-11T07:26:13.412Z,7.5
2023-02-11T07:28:15.168Z,7.5
2023-02-11T07:30:20.032Z,7.5
2023-02-11T07:32:21.740Z,7.5
2023-02-11T07:34:23.487Z,7.5
2023-02-11T07:36:25.133Z,7.6
2023-02-11T07:38:26.841Z,7.6
2023-02-11T07:40:28.569Z,7.6
2023-02-11T07:42:30.242Z,7.5
2023-02-11T07:44:35.167Z,7.6
2023-02-11T07:46:36.996Z,7.6
2023-02-11T07:48:38.539Z,7.6
2023-02-11T07:50:40.238Z,7.7
2023-02-11T07:52:41.957Z,7.7
2023-02-11T07:54:43.619Z,7.7
2023-02-11T07:56:45.318Z,7.7
2023-02-11T07:58:50.260Z,7.8
2023-02-11T08:00:51.997Z,7.7
2023-02-11T08:02:53.640Z,7.7
2023-02-11T08:04:55.370Z,7.8
2023-02-11T08:08:58.739Z,7.8
2023-02-11T08:11:00.431Z,7.9
2023-02-11T08:13:05.347Z,7.9
2023-02-11T08:18:11.222Z,8
2023-02-11T08:20:12.914Z,7.9
2023-02-11T08:22:14.591Z,7.9
2023-02-11T08:26:21.254Z,8.1
2023-02-11T08:28:22.975Z,8.1
2023-02-11T08:30:26.378Z,8.1
2023-02-11T08:38:31.459Z,8.1
2023-02-11T08:46:41.516Z,8.3
2023-02-11T08:48:43.211Z,8.5
2023-02-11T08:50:44.921Z,8.5
2023-02-11T08:52:46.639Z,8.5
2023-02-11T08:54:51.580Z,8.5
2023-02-11T08:56:53.275Z,8.6
2023-02-11T08:58:54.976Z,8.7
2023-02-11T09:00:56.707Z,8.7
2023-02-11T09:02:58.392Z,8.8
2023-02-11T09:05:00.125Z,8.7
2023-02-11T09:07:01.853Z,8.8
2023-02-11T09:09:06.777Z,8.7
2023-02-11T09:11:08.482Z,8.7
2023-02-11T09:13:10.195Z,8.7
2023-02-11T09:16:14.414Z,8.8
2023-02-11T09:22:22.734Z,8.9
2023-02-11T09:26:26.164Z,9.1
2023-02-11T09:28:27.932Z,9.2
2023-02-11T09:30:29.645Z,9.3
2023-02-11T09:32:31.332Z,9.3
2023-02-11T09:34:33.039Z,9.3
2023-02-11T09:36:38.041Z,9.7
2023-02-11T09:38:39.732Z,9.6
2023-02-11T09:40:41.456Z,9.8
2023-02-11T09:42:43.186Z,9.7
2023-02-11T09:44:44.941Z,9.6
2023-02-11T09:46:46.646Z,9.7
2023-02-11T09:48:48.399Z,9.6
2023-02-11T09:50:53.455Z,9.6
2023-02-11T09:52:55.080Z,9.8
2023-02-11T09:54:56.808Z,10.2
2023-02-11T09:56:58.549Z,10.2
2023-02-11T09:59:00.275Z,10.4
2023-02-11T10:01:02.071Z,10.4
2023-02-11T10:03:03.773Z,10.5
2023-02-11T10:05:08.705Z,10.3
2023-02-11T10:09:12.198Z,10.8
2023-02-11T10:12:16.443Z,11.1
2023-02-11T10:14:18.163Z,10.8
2023-02-11T10:16:19.927Z,10.5
2023-02-11T10:18:24.897Z,10.5
2023-02-11T10:20:26.660Z,10.5
2023-02-11T10:22:28.411Z,10.3
2023-02-11T10:24:30.166Z,10.3
2023-02-11T10:26:31.892Z,10.2
2023-02-11T10:28:33.692Z,10.4
2023-02-11T10:30:35.446Z,10.3
2023-02-11T10:32:40.408Z,10.5
2023-02-11T10:34:42.151Z,10.6
2023-02-11T10:38:45.660Z,10.7
2023-02-11T10:40:47.414Z,10.5
2023-02-11T10:42:49.180Z,10.5
2023-02-11T10:44:50.933Z,10.6
2023-02-11T10:46:55.937Z,10.6
2023-02-11T10:48:57.703Z,10.6
2023-02-11T10:50:59.428Z,10.5
2023-02-11T10:53:01.210Z,10.4
2023-02-11T10:59:06.445Z,10.7
2023-02-11T11:03:13.219Z,10.5
2023-02-11T11:05:14.988Z,10.6
2023-02-11T11:07:43.605Z,10.7
2023-02-11T11:09:45.376Z,10.6
2023-02-11T11:11:47.183Z,10.7
2023-02-11T11:18:04.674Z,10.7
2023-02-11T11:19:57.395Z,10.8
2023-02-11T11:26:02.683Z,10.5
2023-02-11T11:28:07.730Z,10.5
2023-02-11T11:30:09.490Z,10.6
2023-02-11T11:32:11.263Z,10.7
2023-02-11T11:34:12.983Z,10.5
2023-02-11T11:36:14.730Z,10.4
2023-02-11T11:38:16.488Z,10.6
2023-02-11T11:40:18.242Z,10.5
2023-02-11T11:42:23.293Z,10.6
2023-02-11T11:44:25.048Z,10.7
2023-02-11T11:46:26.884Z,10.7
2023-02-11T11:48:28.570Z,10.8
2023-02-11T11:50:30.328Z,11
2023-02-11T11:52:32.100Z,11.2
2023-02-11T11:54:33.861Z,11.1
2023-02-11T11:56:38.859Z,10.9
2023-02-11T11:58:40.709Z,11.1
2023-02-11T12:00:42.404Z,11.1
2023-02-11T12:03:46.654Z,11.2
2023-02-11T12:09:55.198Z,11.7
2023-02-11T12:11:56.977Z,11.7
2023-02-11T12:13:58.725Z,11.8
2023-02-11T12:18:02.267Z,13.5
2023-02-11T12:22:05.796Z,13.9
2023-02-11T12:24:10.825Z,13.8
2023-02-11T12:26:12.597Z,13.6
2023-02-11T12:28:14.411Z,13.5
2023-02-11T12:30:16.131Z,13
2023-02-11T12:32:19.464Z,12.9
2023-02-11T12:34:21.197Z,12.7
2023-02-11T12:36:22.981Z,12.5
2023-02-11T12:38:27.978Z,12.5
2023-02-11T12:40:29.764Z,12.3
2023-02-11T12:42:31.528Z,12.3
2023-02-11T12:44:33.317Z,12.5
2023-02-11T12:46:35.113Z,12.4
2023-02-11T12:48:36.911Z,12.4
2023-02-11T12:50:38.732Z,12.4
2023-02-11T12:54:45.456Z,12.4
2023-02-11T12:59:52.353Z,12.3
2023-02-11T13:03:55.923Z,12.7
2023-02-11T13:06:00.936Z,12.7
2023-02-11T13:12:06.277Z,12.6
2023-02-11T13:14:08.064Z,12.9
2023-02-11T13:16:09.942Z,12.9
2023-02-11T13:18:11.640Z,12.9
2023-02-11T13:20:16.657Z,12.9
2023-02-11T13:22:18.456Z,12.8
2023-02-11T13:24:20.231Z,12.9
2023-02-11T13:26:22.010Z,13
2023-02-11T13:28:23.990Z,13
2023-02-11T13:30:25.586Z,12.8
2023-02-11T13:32:27.371Z,12.6
2023-02-11T13:34:32.392Z,12.6
2023-02-11T13:36:34.175Z,12.8
2023-02-11T13:38:36.021Z,13.1
2023-02-11T13:42:39.544Z,13.4
2023-02-11T13:44:41.318Z,13.3
2023-02-11T13:46:43.098Z,13
2023-02-11T13:48:48.137Z,12.9
2023-02-11T13:50:50.408Z,12.9
2023-02-11T13:52:51.695Z,12.6
2023-02-11T13:53:54.220Z,12.6
2023-02-11T13:55:56.016Z,12.5
2023-02-11T13:57:57.805Z,12.8
2023-02-11T13:59:59.624Z,12.8
2023-02-11T14:02:04.652Z,12.9
2023-02-11T14:04:06.420Z,12.9
2023-02-11T14:14:15.379Z,12.3
2023-02-11T14:16:35.231Z,12.5
2023-02-11T14:18:22.162Z,12.6
2023-02-11T14:20:23.947Z,12.5
2023-02-11T14:22:25.724Z,12.5
2023-02-11T14:24:27.502Z,12.3
2023-02-11T14:26:29.277Z,12.2
2023-02-11T14:28:31.125Z,12.3
2023-02-11T14:30:36.193Z,12.2
2023-02-11T14:32:37.865Z,12
2023-02-11T14:34:39.644Z,11.9
2023-02-11T14:40:44.999Z,11.5
2023-02-11T14:42:46.778Z,11.6
2023-02-11T14:48:55.348Z,11.3
2023-02-11T14:51:23.987Z,11.4
2023-02-11T14:53:25.766Z,11.3
2023-02-11T14:55:27.510Z,11.2
2023-02-11T15:01:36.207Z,11.1
2023-02-11T15:03:37.835Z,11.2
2023-02-11T15:05:39.595Z,11.1
2023-02-11T15:07:41.355Z,11.2
2023-02-11T15:11:48.147Z,11.1
2023-02-11T15:13:49.875Z,11
2023-02-11T15:15:51.736Z,11.1
2023-02-11T15:17:53.407Z,11.1
2023-02-11T15:19:55.183Z,11.1
2023-02-11T15:21:51.130Z,11.2
2023-02-11T15:25:57.844Z,11.1
2023-02-11T15:36:06.610Z,11
2023-02-11T15:38:08.388Z,11
2023-02-11T15:40:13.372Z,11.1
2023-02-11T15:42:15.100Z,11.2
2023-02-11T15:44:16.868Z,11
2023-02-11T15:45:19.376Z,11.2
2023-02-11T15:47:21.135Z,11.2
2023-02-11T15:51:24.626Z,11.1
2023-02-11T15:53:29.670Z,11.2
2023-02-11T15:55:31.375Z,11.3
2023-02-11T15:57:33.148Z,11.3
2023-02-11T16:01:36.669Z,11.3
2023-02-11T16:03:38.413Z,11.2
2023-02-11T16:05:40.158Z,11.4
2023-02-11T16:09:46.912Z,11.2
2023-02-11T16:11:48.714Z,11.1
2023-02-11T16:15:52.199Z,11.1
2023-02-11T16:19:55.696Z,11.1
2023-02-11T16:24:02.476Z,11.1
2023-02-11T16:26:04.221Z,11
2023-02-11T16:28:06.008Z,10.9
2023-02-11T16:30:07.742Z,10.9
2023-02-11T16:32:09.601Z,10.8
2023-02-11T16:34:11.246Z,10.9
2023-02-11T16:36:16.238Z,10.8
2023-02-11T16:38:18.008Z,10.9
2023-02-11T16:40:19.778Z,10.7
2023-02-11T16:45:25.777Z,10.7
2023-02-11T16:47:27.574Z,10.6
2023-02-11T16:49:32.555Z,10.6
2023-02-11T16:51:34.308Z,10.5
2023-02-11T16:53:36.097Z,10.6
2023-02-11T16:55:38.839Z,10.4
2023-02-11T16:57:39.574Z,10.5
2023-02-11T16:59:41.356Z,10.3
2023-02-11T17:01:43.083Z,10.4
2023-02-11T17:03:48.082Z,10.4
2023-02-11T17:05:55.440Z,10.3
2023-02-11T17:07:51.594Z,10.4
2023-02-11T17:09:53.374Z,10.3
2023-02-11T17:11:55.131Z,10.3
2023-02-11T17:13:56.883Z,10.3
2023-02-11T17:15:58.674Z,10.3
2023-02-11T17:18:03.647Z,10.3
2023-02-11T17:20:05.449Z,10.2
2023-02-11T17:22:07.173Z,10.2
2023-02-11T17:24:08.906Z,10.2
2023-02-11T17:26:10.655Z,10.2
2023-02-11T17:28:12.472Z,10.2
2023-02-11T17:30:14.161Z,10.2
2023-02-11T17:32:19.295Z,10.1
2023-02-11T17:34:20.939Z,10.1
2023-02-11T17:36:22.698Z,10.1
2023-02-11T17:37:25.204Z,10.2
2023-02-11T17:39:26.947Z,10.1
2023-02-11T17:41:28.684Z,10.1
2023-02-11T17:43:30.435Z,10
2023-02-11T17:45:35.458Z,10
2023-02-11T17:47:37.214Z,10
2023-02-11T17:49:38.965Z,10.1
2023-02-11T17:51:40.709Z,10
2023-02-11T17:53:42.478Z,9.9
2023-02-11T17:55:44.225Z,10
2023-02-11T17:57:46.010Z,10
2023-02-11T17:59:50.977Z,9.9
2023-02-11T18:01:52.728Z,9.9
2023-02-11T18:05:56.233Z,9.9
2023-02-11T18:07:58.025Z,9.8
2023-02-11T18:09:59.773Z,9.7
2023-02-11T18:14:06.502Z,9.6
2023-02-11T18:16:08.348Z,9.7
2023-02-11T18:18:10.015Z,9.8
2023-02-11T18:20:11.774Z,9.6
2023-02-11T18:22:13.509Z,9.8
2023-02-11T18:24:16.806Z,9.7
2023-02-11T18:26:18.555Z,9.7
2023-02-11T18:28:23.632Z,9.7
2023-02-11T18:30:25.266Z,9.8
2023-02-11T18:32:27.044Z,9.6
2023-02-11T18:34:55.616Z,9.6
2023-02-11T18:36:57.370Z,9.6
2023-02-11T18:38:59.120Z,9.7
2023-02-11T18:41:04.132Z,9.6
2023-02-11T18:43:05.863Z,9.7
2023-02-11T18:45:07.632Z,9.6
2023-02-11T18:49:11.135Z,9.5
2023-02-11T18:51:12.912Z,9.5
2023-02-11T18:53:14.611Z,9.5
2023-02-11T18:55:21.938Z,9.6
2023-02-11T18:57:21.364Z,9.6
2023-02-11T18:59:23.110Z,9.5
2023-02-11T19:01:24.935Z,9.5
2023-02-11T19:03:26.578Z,9.6
2023-02-11T19:05:28.333Z,9.4
2023-02-11T19:07:30.060Z,9.5
2023-02-11T19:09:35.054Z,9.5
2023-02-11T19:11:36.792Z,9.4
2023-02-11T19:13:38.542Z,9.4
2023-02-11T19:15:40.276Z,9.5
2023-02-11T19:17:42.044Z,9.2
2023-02-11T19:19:43.762Z,9.3
2023-02-11T19:21:45.500Z,9.4
2023-02-11T19:23:50.474Z,9.3
2023-02-11T19:25:52.499Z,9.4
2023-02-11T19:27:53.948Z,9.4
2023-02-11T19:28:56.416Z,9.4
2023-02-11T19:30:58.302Z,9.3
2023-02-11T19:37:06.608Z,9.3
2023-02-11T19:41:10.103Z,9.4
2023-02-11T19:45:13.568Z,9.3
2023-02-11T19:47:15.350Z,9.3
2023-02-11T19:49:17.056Z,9.4
2023-02-11T19:51:22.040Z,9.3
2023-02-11T19:53:23.773Z,9.2
2023-02-11T19:55:25.515Z,9.2
2023-02-11T19:59:28.994Z,9.2
2023-02-11T20:01:30.804Z,9.3
2023-02-11T20:05:37.434Z,9.2
2023-02-11T20:07:39.174Z,9.2
2023-02-11T20:15:46.188Z,9.1
2023-02-11T20:17:47.849Z,9.3
2023-02-11T20:23:56.309Z,9.2
2023-02-11T20:24:58.785Z,9.1
2023-02-11T20:31:04.162Z,9.1
2023-02-11T20:41:15.927Z,9.1
2023-02-11T20:43:17.670Z,9.1
2023-02-11T20:45:19.386Z,9.2
2023-02-11T20:51:27.840Z,9
2023-02-11T21:01:39.737Z,9.1
2023-02-11T21:09:46.639Z,8.9
2023-02-11T21:11:48.384Z,9
2023-02-11T21:13:50.160Z,9.1
2023-02-11T21:15:55.602Z,9
2023-02-11T21:17:56.797Z,9
2023-02-11T21:21:01.037Z,8.9
2023-02-11T21:23:02.735Z,8.8
2023-02-11T21:27:06.230Z,8.9
2023-02-11T21:29:11.181Z,8.8
2023-02-11T21:31:13.035Z,8.9
2023-02-11T21:33:14.653Z,9
2023-02-11T21:35:16.377Z,8.9
2023-02-11T21:37:18.107Z,9
2023-02-11T21:39:19.855Z,8.8
2023-02-11T21:43:26.505Z,9
2023-02-11T21:45:28.326Z,9
2023-02-11T21:49:31.705Z,8.9
2023-02-11T21:51:33.463Z,8.9
2023-02-11T21:53:35.162Z,8.8
2023-02-11T21:55:36.886Z,8.8
2023-02-11T22:01:45.344Z,8.9
2023-02-11T22:03:47.041Z,8.9
2023-02-11T22:05:48.769Z,8.8
2023-02-11T22:07:50.504Z,8.7
2023-02-11T22:18:29.256Z,8.8
2023-02-11T22:20:30.981Z,8.8
2023-02-11T22:22:32.715Z,8.7
2023-02-11T22:24:37.676Z,8.9
2023-02-11T22:34:46.285Z,8.9
2023-02-11T22:36:48.006Z,8.7
2023-02-11T22:38:52.981Z,8.7
2023-02-11T22:42:56.420Z,8.8
2023-02-11T22:44:58.148Z,8.7
2023-02-11T22:46:59.866Z,8.8
2023-02-11T22:49:01.614Z,8.8
2023-02-11T22:51:03.324Z,8.8
2023-02-11T22:53:08.261Z,8.7
2023-02-11T22:55:10.010Z,8.8
2023-02-11T22:57:11.696Z,8.7
2023-02-11T22:59:13.417Z,8.7
2023-02-11T23:01:15.163Z,8.6
2023-02-11T23:03:16.872Z,8.7
2023-02-11T23:05:18.602Z,8.6
2023-02-11T23:07:23.554Z,8.6
2023-02-11T23:11:27.009Z,8.5
2023-02-11T23:12:29.480Z,8.6
2023-02-11T23:14:31.188Z,8.6
2023-02-11T23:16:33.000Z,8.4
2023-02-11T23:18:34.636Z,8.5
2023-02-11T23:20:39.602Z,8.4
2023-02-11T23:22:41.318Z,8.4
2023-02-11T23:24:43.058Z,8.4
2023-02-11T23:26:44.750Z,8.3
2023-02-11T23:28:46.463Z,8.4
2023-02-11T23:30:48.244Z,8.2
2023-02-11T23:32:49.894Z,8.4
2023-02-11T23:34:54.921Z,8.2
2023-02-11T23:36:56.563Z,8.1
2023-02-11T23:38:58.247Z,8.2
2023-02-11T23:40:59.983Z,8.1
2023-02-11T23:43:01.705Z,8.1
2023-02-11T23:45:03.397Z,8.1
2023-02-11T23:49:10.077Z,8
2023-02-11T23:57:16.856Z,7.9
2023-02-11T23:59:18.567Z,7.8
